Aviation Digital Data Service (ADDS)

Output produced by TAFs form (0341 UTC 04 September 2015)
found at http://aviationweather.gov/adds/tafs/
 
KDRO 040103Z 0401/0424 24007KT P6SM FEW080 SCT120 
     FM040300 33005KT P6SM SCT150 
     FM040600 02003KT P6SM FEW100 BKN150 
     FM041600 08004KT P6SM SCT080 BKN120 
     FM042000 16007KT P6SM VCTS SCT060CB BKN100